Weather observations for the past three days for
Perry-Foley Airport
Metric (Imperial)
Date Time (edt) Wind (kph) Vis. (km) Weather Sky Cond. Temperature (ºC) Relative Humidity Wind Chill (°C) Heat Index (°C) Pressure Precipitation (cm)
Air Dwpt 6 hour altimeter (cm) sea level (mb) 1 hr 3 hr 6 hr
Max. Min.
07 02:55 Calm 0.80 Fog OVC001 16.1 15.6 97% 76.07 0.0
07 02:35 Calm 0.80 Fog OVC001 16.5 16 97% 76.07 0.0
07 02:15 Calm 0.40 Fog OVC001 17.5 17 97% 76.1 0.0
07 01:55 Calm 0.80 Fog OVC003 17.6 17.1 24.6 17.6 97% 76.12 0.0
07 01:35 Calm 0.40 Fog OVC003 19.4 18.9 97% 76.15 0.0
07 01:15 Calm 0.80 Fog OVC005 19 18.5 97% 76.15 0.0
07 00:55 Calm 0.80 Fog OVC005 18.1 17.6 97% 76.15 0.0
07 00:35 Calm 0.80 Fog BKN005 19.3 18.8 97% 76.17 0.0
07 00:15 Calm 1.61 Fog/Mist BKN005 18.9 18.4 97% 76.17 0.0
06 23:55 Calm 1.21 Fog/Mist BKN005 19.6 19.1 97% 76.17 0.0
06 23:35 Calm 1.21 Fog/Mist OVC005 20 19.5 97% 76.2 0.0
06 23:15 Calm 11.27 Partly Cloudy SCT005 20.2 19.4 95% 76.17 0.0
06 22:55 Calm 16.09 Fair CLR 21 20.1 95% 76.17 0.0
06 22:35 S 6 16.09 Fair CLR 21.2 20.2 94% 76.17 0.0
06 22:15 S 6 16.09 Fair CLR 21.4 20.1 92% 76.17 0.0
06 21:55 S 9 16.09 Fair CLR 21.2 20 93% 76.17 0.0
06 21:35 S 7 16.09 Fair CLR 20.7 19.4 92% 76.2 0.0
06 21:15 S 7 16.09 Fair CLR 22 19.9 88% 76.2 0.0
06 20:55 S 6 16.09 Fair CLR 22.3 20.1 87% 76.2 0.0
06 20:35 Calm 16.09 Fair CLR 23.4 20.1 82% 76.2 0.0
06 20:15 S 6 16.09 Fair CLR 23.7 20 80% 76.17 0.0
06 19:55 S 9 16.09 Fair CLR 24.7 19.9 29.7 24.7 75% 26 76.15 0.0
06 19:35 SW 15 16.09 Fair CLR 25.6 19.5 69% 27 76.15 0.0
06 18:55 S 15 16.09 Fair CLR 26.9 18.8 61% 28 76.17 0.0
06 18:35 S 15 16.09 Fair CLR 27.1 18.5 59% 28 76.17 0.0
06 18:15 SW 13 16.09 Fair CLR 27.4 19.5 62% 29 76.2 0.0
06 17:55 SW 15 16.09 Fair CLR 27.2 19.3 62% 29 76.2 0.0
06 17:35 SW 22 16.09 Partly Cloudy SCT029 27.8 19.1 59% 29 76.23 0.0
06 17:15 SW 15 16.09 Partly Cloudy SCT029 28.3 19.2 58% 30 76.23 0.0
06 16:55 SW 17 16.09 Partly Cloudy SCT029 SCT034 28.1 19.7 60% 30 76.23 0.0
06 16:35 S 20 16.09 Mostly Cloudy SCT029 BKN034 28.2 19.7 60% 30 76.23 0.0
06 16:15 SW 22 G 28 16.09 Mostly Cloudy BKN029 28.9 19.9 58% 31 76.25 0.0
06 15:55 SW 17 G 31 16.09 Partly Cloudy SCT029 28.7 19.2 56% 30 76.25 0.0
06 15:35 SW 24 G 30 16.09 Mostly Cloudy BKN029 BKN035 28.1 20.1 62% 30 76.28 0.0
06 15:15 SW 20 16.09 Mostly Cloudy BKN029 BKN037 28.5 19.8 59% 30 76.28 0.0
06 14:35 SW 24 G 30 16.09 Mostly Cloudy BKN031 29.1 20.3 59% 31 76.3 0.0
06 14:15 S 19 G 30 16.09 Mostly Cloudy BKN029 BKN036 28.9 19.8 58% 31 76.3 0.0
06 13:55 S 22 G 30 16.09 Mostly Cloudy SCT027 BKN039 29 19.6 29.4 18.1 57% 31 76.33 0.0
06 13:35 SW 19 G 30 16.09 Partly Cloudy SCT027 28.7 20.2 60% 31 76.33 0.0
06 13:15 SW 22 G 28 16.09 Partly Cloudy SCT029 28.9 20.3 60% 31 76.33 0.0
06 12:55 SW 17 G 33 16.09 Partly Cloudy SCT029 SCT037 29.1 20.1 58% 31 76.33 0.0
06 12:35 S 19 G 28 16.09 Partly Cloudy SCT037 28.6 20.3 61% 30 76.33 0.0
06 12:15 S 24 G 33 16.09 Partly Cloudy SCT026 SCT033 28.8 20.4 60% 31 76.33 0.0
06 11:55 S 20 16.09 Mostly Cloudy SCT026 BKN033 28.7 20.5 61% 31 76.33 0.0
06 11:35 SW 22 G 28 16.09 Partly Cloudy SCT022 28 20.7 65% 30 76.33 0.0
06 11:15 S 20 G 30 16.09 Mostly Cloudy BKN020 26.8 20.5 68% 28 76.3 0.0
06 10:55 S 20 G 28 16.09 Overcast OVC020 27.2 20.9 69% 29 76.28 0.0
06 10:35 S 17 16.09 Overcast OVC018 26.2 21 73% 28 76.28 0.0
06 10:15 SE 11 16.09 Partly Cloudy SCT016 25.2 20.8 77% 26 76.28 0.0
06 09:55 S 11 16.09 Fair CLR 24.4 20.7 80% 25 76.28 0.0
06 09:35 SE 6 16.09 Fair CLR 22.7 20.2 86% 76.28 0.0
06 09:15 SE 6 16.09 Fair CLR 21.4 19.5 89% 76.25 0.0
06 08:55 SE 6 16.09 Fair CLR 20.2 19.1 93% 76.25 0.0
06 08:35 SE 6 16.09 Fair CLR 19.3 18.6 96% 76.23 0.0
06 08:15 SE 6 16.09 Fair CLR 18.8 18.2 96% 76.23 0.0
06 07:55 Calm 16.09 Fair CLR 18 17.5 18.6 15.7 97% 76.2 0.0
06 07:35 SE 6 11.27 Fair CLR 17.5 17 97% 76.17 0.0
06 07:15 SE 6 6.44 Fog/Mist CLR 16.8 16.3 97% 76.17 0.0
06 06:55 E 6 3.22 Fog/Mist SCT004 SCT009 16.6 16.1 97% 76.17 0.0
06 06:35 E 6 0.80 Fog BKN004 16 15.5 97% 76.15 0.0
06 06:15 Calm 1.21 Fog/Mist BKN004 16.5 16 97% 76.15 0.0
06 05:55 Calm 0.80 Fog OVC004 16.5 16 97% 76.17 0.0
06 05:35 Calm 0.80 Fog OVC004 16.8 16.3 97% 76.15 0.0
06 05:15 Calm 0.80 Fog OVC004 16.9 16.4 97% 76.15 0.0
06 04:55 Calm 0.80 Fog BKN004 16.7 16.2 97% 76.17 0.0
06 04:35 Calm 4.83 Fog/Mist CLR 18.1 17.6 97% 76.17 0.0
06 04:15 Calm 8.05 Fog/Mist CLR 18 17.3 96% 76.17 0.0
06 03:55 SE 7 11.27 Fair CLR 17.6 17 96% 76.17 0.0
06 03:35 SE 6 16.09 Fair CLR 18 17.4 96% 76.17 0.0
06 03:15 Calm 16.09 Mostly Cloudy BKN015 18.1 17.5 96% 76.2 0.0
06 02:55 E 6 16.09 Overcast OVC013 18.5 17.8 96% 76.17 0.0
06 02:35 SE 7 16.09 Mostly Cloudy BKN009 18.6 18.1 97% 76.17 0.0
06 01:55 E 9 16.09 Partly Cloudy SCT003 SCT009 17.4 16.9 23.8 15.2 97% 76.2 0.0
06 01:35 E 7 8.05 Fog/Mist CLR 16 15.5 97% 76.23 0.0
06 01:15 SE 6 11.27 Fair CLR 15.5 15 97% 76.23 0.0
06 00:35 Calm 2.41 Fog/Mist SCT007 16.4 15.9 97% 76.23 0.0
06 00:15 Calm 1.21 Fog/Mist BKN007 17.1 16.6 97% 76.23 0.0
05 23:55 Calm 4.83 Fog/Mist CLR 16.8 16.3 97% 76.25 0.0
05 23:35 E 6 1.21 Fog/Mist VV005 17 16.4 96% 76.25 0.0
05 23:15 Calm 4.83 Fog/Mist CLR 18 17.4 96% 76.25 0.0
05 22:55 Calm 16.09 Fair CLR 18.3 17.2 93% 76.23 0.0
05 22:35 Calm 16.09 Fair CLR 18.1 17.4 96% 76.23 0.0
05 22:15 Calm 16.09 Fair CLR 18.5 17.8 96% 76.2 0.0
05 21:55 Calm 16.09 Fair CLR 19.2 18 93% 76.2 0.0
05 21:35 Calm 16.09 Fair CLR 19.4 17.8 91% 76.17 0.0
05 21:15 Calm 16.09 Fair CLR 20.3 18 87% 76.17 0.0
05 20:55 Calm 16.09 Fair CLR 20.8 17.7 83% 76.15 0.0
05 20:35 Calm 16.09 Fair CLR 22.4 18 76% 76.15 0.0
05 20:15 SW 7 16.09 Fair CLR 22.6 18 75% 76.15 0.0
05 19:55 SW 11 16.09 Fair CLR 23.9 18 28.6 23.9 70% 25 76.15 0.0
05 19:35 SW 11 16.09 Fair CLR 24.9 18 66% 26 76.15 0.0
05 19:15 SW 13 16.09 Fair CLR 25.4 18 64% 26 76.15 0.0
05 18:55 SW 13 16.09 Fair CLR 26 17.6 60% 27 76.15 0.0
05 18:35 SW 15 16.09 Fair CLR 26.3 17.1 57% 27 76.15 0.0
05 18:15 SW 17 16.09 Fair CLR 26.6 17 56% 27 76.15 0.0
05 17:55 SW 20 16.09 Fair CLR 27 16.8 54% 28 76.15 0.0
05 17:35 SW 19 16.09 Fair CLR 27.4 16.1 50% 28 76.12 0.0
05 17:15 SW 20 G 28 16.09 Fair CLR 28 15.9 48% 28 76.15 0.0
05 16:55 S 15 G 30 16.09 Fair CLR 28.3 15.7 46% 28 76.15 0.0
05 16:35 S 19 16.09 Fair CLR 28.1 14.8 44% 28 76.17 0.0
05 16:15 SW 17 16.09 Fair CLR 28.3 14.4 43% 28 76.17 0.0
05 15:55 S 20 16.09 Fair CLR 28.2 14.8 44% 28 76.2 0.0
05 15:35 SW 22 G 28 16.09 Fair CLR 28.2 15.1 45% 28 76.2 0.0
05 15:15 SW 15 G 33 16.09 Partly Cloudy SCT039 28.4 15.9 47% 29 76.23 0.0
05 14:55 SW 24 G 31 16.09 Fair CLR 27.9 16.8 51% 28 76.23 0.0
05 14:35 SW 17 16.09 Partly Cloudy SCT040 SCT050 28.2 13.4 40% 28 76.23 0.0
05 14:15 SW 20 G 30 16.09 Partly Cloudy SCT040 SCT048 28.5 16.4 48% 29 76.23 0.0
05 13:55 SW 19 16.09 Fair CLR 28.6 16.4 28.6 17.3 48% 29 76.25 0.0
05 13:35 S 20 16.09 Partly Cloudy SCT035 SCT044 SCT050 28.1 16.7 50% 29 76.25 0.0
05 13:15 S 13 16.09 Mostly Cloudy SCT037 BKN050 BKN060 27.5 16.7 52% 28 76.28 0.0
05 12:55 SW 15 16.09 Mostly Cloudy SCT035 SCT041 BKN050 26 16.9 57% 27 76.28 0.0
05 12:35 S 15 16.09 Partly Cloudy SCT036 27.6 17.3 53% 28 76.28 0.0
05 12:15 S 19 16.09 Partly Cloudy SCT038 SCT048 SCT055 26.8 16.9 55% 28 76.3 0.0
05 11:55 SW 15 16.09 Mostly Cloudy BKN036 BKN046 BKN050 26.6 16.5 54% 27 76.3 0.0
05 11:35 S 15 16.09 Mostly Cloudy BKN034 BKN040 BKN047 25.4 17 60% 26 76.3 0.0
05 11:15 SE 7 16.09 Mostly Cloudy BKN032 BKN041 BKN049 26 17.5 60% 27 76.33 0.0
05 10:55 S 9 16.09 Mostly Cloudy SCT027 BKN036 BKN050 24.6 17 63% 26 76.3 0.0
05 10:35 SE 15 16.09 Mostly Cloudy SCT027 BKN034 BKN050 24.7 17.3 64% 26 76.28 0.0
05 10:15 SE 11 16.09 Partly Cloudy SCT036 SCT041 SCT048 24.4 17.1 64% 25 76.3 0.0
05 09:55 SE 13 16.09 Mostly Cloudy SCT030 BKN040 BKN050 23.2 16.6 67% 76.28 0.0
05 09:35 SE 11 16.09 Partly Cloudy SCT041 SCT050 23.1 16.1 65% 76.28 0.0
05 09:15 SE 13 16.09 Partly Cloudy SCT039 22.7 15.8 65% 76.28 0.0
05 08:55 SE 17 16.09 Partly Cloudy SCT043 21.5 15.8 70% 76.25 0.0
05 08:35 SE 11 16.09 Partly Cloudy SCT045 19.6 15.2 76% 76.25 0.0
05 08:15 E 7 16.09 Fair CLR 18.4 14.6 79% 76.25 0.0
05 07:55 SE 7 16.09 Partly Cloudy SCT060 17.2 14.2 17.2 11.9 83% 76.23 0.0
05 07:35 SE 9 16.09 Partly Cloudy SCT060 16.1 13.7 86% 76.2 0.0
05 07:15 SE 7 16.09 Partly Cloudy SCT060 14.6 12.7 88% 76.2 0.0
05 06:55 E 6 16.09 Partly Cloudy SCT060 13.8 12 89% 76.2 0.0
05 06:35 Calm 16.09 Fair CLR 13.8 11.8 88% 76.2 0.0
05 06:15 Calm 16.09 Fair CLR 12.8 11 89% 76.15 0.0
05 05:55 Calm 16.09 Fair CLR 13 11.3 90% 76.15 0.0
05 05:35 Calm 16.09 Fair CLR 12.9 11.9 94% 76.15 0.0
05 05:15 Calm 16.09 Fair CLR 12.8 11.4 91% 76.15 0.0
05 04:55 Calm 16.09 Fair CLR 12.5 11 91% 76.15 0.0
05 04:35 Calm 16.09 Fair CLR 12.7 11.2 91% 76.15 0.0
05 04:15 Calm 16.09 Fair CLR 12.5 10.7 89% 76.15 0.0
05 03:55 Calm 16.09 Fair CLR 11.9 10.7 92% 76.15 0.0
05 03:35 Calm 16.09 Fair CLR 12.5 11.2 92% 76.15 0.0
05 03:15 Calm 16.09 Fair CLR 12.4 10.9 91% 76.15 0.0
05 02:55 Calm 16.09 Fair CLR 12.1 10.6 91% 76.15 0.0
05 02:35 Calm 16.09 Fair CLR 13.1 11 87% 76.2 0.0
05 02:15 Calm 16.09 Fair CLR 13.1 10.7 86% 76.23 0.0
05 01:55 Calm 16.09 Fair CLR 13.5 10.9 22.7 12.6 84% 76.23 0.0
05 01:35 Calm 16.09 Fair CLR 12.7 10.8 88% 76.23 0.0
05 01:15 Calm 16.09 Fair CLR 14.3 11.4 83% 76.23 0.0
05 00:55 Calm 16.09 Fair CLR 14.4 11.8 85% 76.25 0.0
05 00:35 SE 6 16.09 Partly Cloudy SCT080 15.3 11.8 80% 76.23 0.0
05 00:15 NE 11 16.09 Fair CLR 15.2 12.3 83% 76.23 0.0
04 23:55 Calm 16.09 Fair CLR 13.3 11.3 88% 76.23 0.0
04 23:35 Calm 16.09 Fair CLR 13.9 11.6 86% 76.23 0.0
04 23:15 Calm 16.09 Fair CLR 14.7 11.7 82% 76.23 0.0
04 22:55 Calm 16.09 Fair CLR 15.4 11.9 80% 76.2 0.0
04 22:35 Calm 16.09 Fair CLR 15.3 12.3 82% 76.2 0.0
04 22:15 Calm 16.09 Fair CLR 16.1 11.2 73% 76.2 0.0
04 21:55 Calm 16.09 Fair CLR 16.2 12.2 77% 76.2 0.0
04 21:35 Calm 16.09 Fair CLR 17.4 11.7 69% 76.2 0.0
04 21:15 Calm 16.09 Fair CLR 18.4 10.7 61% 76.17 0.0
04 20:55 Calm 16.09 Fair CLR 19.1 10.5 58% 76.17 0.0
04 20:35 Calm 16.09 Fair CLR 20.4 10.4 53% 76.17 0.0
04 20:15 SW 6 16.09 Fair CLR 21.4 10.1 49% 76.15 0.0
04 19:55 SW 9 16.09 Fair CLR 22.8 9.7 28.5 22.8 43% 76.15 0.0
04 19:35 W 15 16.09 Fair CLR 23.7 9.9 42% 76.15 0.0
04 19:15 SW 15 16.09 Fair CLR 24.5 9.9 40% 25 76.15 0.0
04 18:55 SW 15 16.09 Fair CLR 25 9.3 37% 26 76.15 0.0
04 18:15 SW 19 16.09 Fair CLR 26 9.1 34% 26 76.12 0.0
04 17:55 SW 20 16.09 Fair CLR 26.4 9.1 34% 26 76.1 0.0
04 17:35 SW 20 G 28 16.09 Fair CLR 27 9.3 33% 27 76.12 0.0
04 17:15 SW 20 G 28 16.09 Fair CLR 27.3 9.1 32% 27 76.12 0.0
04 16:55 W 13 16.09 Fair CLR 27.8 9.3 31% 27 76.12 0.0
04 16:35 SW 13 16.09 Fair CLR 27.8 8.9 31% 27 76.12 0.0
04 16:15 S 6 16.09 Fair CLR 28 4.5 22% 27 76.15 0.0
04 15:55 E 9 16.09 Fair CLR 28.5 5.1 23% 27 76.17 0.0
04 15:35 S 9 16.09 Fair CLR 28.3 6 24% 27 76.2 0.0
04 15:15 Calm 16.09 Fair CLR 27.6 5.8 25% 27 76.2 0.0
04 14:55 Calm 16.09 Fair CLR 27.5 6.4 26% 27 76.23 0.0
04 14:35 SE 11 16.09 Fair CLR 27.1 6.1 26% 26 76.25 0.0
04 14:15 S 7 16.09 Fair CLR 26.8 5.5 26% 26 76.28 0.0
04 13:55 NE 15 16.09 Fair CLR 27.2 5.7 27.2 10.7 25% 26 76.28 0.0
04 13:35 W 9 16.09 Fair CLR 26.9 6.8 28% 26 76.3 0.0
04 13:15 SE 7 16.09 Fair CLR 26.1 6.6 29% 26 76.33 0.0
04 12:55 Calm 16.09 Fair CLR 25.4 5.7 28% 25 76.33 0.0
04 12:35 Calm 16.09 Fair CLR 25.8 7 30% 26 76.35 0.0
04 12:15 E 7 16.09 Fair CLR 25.2 7.2 32% 26 76.38 0.0
04 11:55 S 6 16.09 Fair CLR 24.7 6.5 31% 25 76.4 0.0
04 11:35 NE 6 16.09 Fair CLR 24.6 6.5 31% 25 76.4 0.0
04 11:15 E 7 16.09 Fair CLR 24.2 7.4 34% 25 76.4 0.0
04 10:55 E 9 16.09 Fair CLR 23.9 6.9 34% 25 76.4 0.0
04 10:35 NE 11 16.09 Fair CLR 23.5 9.1 40% 76.4 0.0
04 10:15 Calm 16.09 Fair CLR 22.3 12.1 53% 76.4 0.0
04 09:55 NE 7 16.09 Fair CLR 21.5 12.6 57% 76.43 0.0
04 09:35 E 6 16.09 Fair CLR 20.2 12.8 63% 76.4 0.0
04 09:15 Calm 16.09 Fair CLR 18.5 12.6 69% 76.4 0.0
04 08:55 E 6 16.09 Fair CLR 16.8 11.8 73% 76.43 0.0
04 08:35 Calm 16.09 Fair CLR 14.9 10.9 77% 76.4 0.0
04 08:15 Calm 16.09 Fair CLR 12.9 10 83% 76.4 0.0
04 07:55 Calm 16.09 Fair CLR 10.6 9.3 10.8 7.7 92% 76.4 0.0
04 07:35 Calm 16.09 Fair CLR 8.5 8 97% 76.4 0.0
04 07:15 Calm 16.09 Fair CLR 8 7.5 97% 76.38 0.0
04 06:55 Calm 16.09 Fair CLR 8 7.5 97% 76.38 0.0
04 06:35 Calm 16.09 Fair CLR 7.9 7.4 97% 76.38 0.0
04 06:15 Calm 16.09 Fair CLR 8 7.3 95% 76.35 0.0
04 05:55 Calm 16.09 Fair CLR 8.3 7.7 96% 76.35 0.0
04 05:35 Calm 16.09 Fair CLR 8.4 7.7 95% 76.35 0.0
04 05:15 Calm 16.09 Fair CLR 8.1 7.3 95% 76.35 0.0
04 04:55 Calm 16.09 Fair CLR 8.6 8 96% 76.38 0.0
04 04:35 Calm 16.09 Fair CLR 8.7 7.8 94% 76.35 0.0
04 04:15 Calm 16.09 Fair CLR 9 8.1 94% 76.35 0.0
04 03:55 Calm 16.09 Fair CLR 9.6 8 90% 76.38 0.0
04 03:35 Calm 16.09 Fair CLR 10 8.5 91% 76.38 0.0
04 03:15 Calm 16.09 Fair CLR 9.3 8 92% 76.38 0.0
Date Time (edt) Wind (kph) Vis. (km) Weather Sky Cond. Air Dwpt Max. Min. Relative Humidity Wind Chill (°C) Heat Index (°C) altimeter (cm) sea level (mb) 1 hr 3 hr 6 hr
6 hour
Temperature (ºC) Pressure Precipitation (cm)